Time;durP1;ratioP1;P1;durP2;ratioP2;P2;SDS_P1;SDS_P2;PMS_P1;PMS_P2;Temp;Humidity;BMP_temperature;BMP_pressure;BME280_temperature;BME280_humidity;BME280_pressure;Samples;Min_cycle;Max_cycle;Signal;HPM_P1;HPM_P2
2021/12/23 00:01:17;;;;;;;24.75;13.73;;;;;;;;;;5080707;28;20040;-60
2021/12/23 00:03:43;;;;;;;26.92;14.10;;;;;;;;;;5081374;28;20043;-60
2021/12/23 00:06:09;;;;;;;22.60;13.60;;;;;;;;;;5077475;28;20094;-61
2021/12/23 00:08:35;;;;;;;27.20;14.20;;;;;;;;;;5079426;28;20395;-60
2021/12/23 00:11:02;;;;;;;22.85;13.35;;;;;;;;;;5080532;28;20047;-60
2021/12/23 00:13:28;;;;;;;24.08;13.80;;;;;;;;;;5081565;28;20370;-60
2021/12/23 00:23:48;;;;;;;20.50;13.38;;;;;;;;;;5080791;28;20563;-60
2021/12/23 00:26:15;;;;;;;27.55;13.88;;;;;;;;;;5078125;28;20057;-60
2021/12/23 00:28:41;;;;;;;22.80;13.10;;;;;;;;;;5081946;28;20044;-60
2021/12/23 00:31:07;;;;;;;23.30;12.38;;;;;;;;;;5087072;28;20050;-60
2021/12/23 00:33:35;;;;;;;26.33;13.63;;;;;;;;;;5081466;28;20104;-60
2021/12/23 00:36:03;;;;;;;24.85;14.02;;;;;;;;;;5077682;28;20131;-60
2021/12/23 00:38:34;;;;;;;24.98;14.32;;;;;;;;;;5078005;28;20064;-60
2021/12/23 00:41:02;;;;;;;28.77;13.90;;;;;;;;;;5077712;28;20341;-61
2021/12/23 00:43:28;;;;;;;23.55;13.65;;;;;;;;;;5083321;28;20043;-60
2021/12/23 00:45:54;;;;;;;24.90;14.32;;;;;;;;;;5094748;28;20154;-60
2021/12/23 00:48:21;;;;;;;27.20;14.45;;;;;;;;;;5080954;28;20052;-60
2021/12/23 00:50:48;;;;;;;26.80;14.35;;;;;;;;;;5077357;28;20064;-60
2021/12/23 00:53:18;;;;;;;23.35;13.48;;;;;;;;;;5074886;28;20047;-60
2021/12/23 00:55:47;;;;;;;22.02;12.98;;;;;;;;;;5076994;28;20399;-60
2021/12/23 00:58:13;;;;;;;21.98;13.02;;;;;;;;;;5081870;28;20055;-60
2021/12/23 01:00:39;;;;;;;26.60;13.55;;;;;;;;;;5082941;28;20035;-60
2021/12/23 01:03:06;;;;;;;26.13;13.88;;;;;;;;;;5078355;28;20044;-60
2021/12/23 01:05:32;;;;;;;26.75;14.35;;;;;;;;;;5079864;28;20125;-60
2021/12/23 01:07:58;;;;;;;28.00;13.77;;;;;;;;;;5081898;28;20036;-60
2021/12/23 01:10:26;;;;;;;26.13;14.07;;;;;;;;;;5081364;28;20062;-60
2021/12/23 01:12:58;;;;;;;24.80;13.18;;;;;;;;;;5088890;28;20043;-60
2021/12/23 01:18:18;;;;;;;30.52;13.57;;;;;;;;;;5078076;28;20102;-60
2021/12/23 01:20:52;;;;;;;23.73;13.20;;;;;;;;;;5076699;28;20051;-60
2021/12/23 01:23:20;;;;;;;27.23;14.45;;;;;;;;;;5078497;28;20048;-61
2021/12/23 01:25:47;;;;;;;20.20;12.45;;;;;;;;;;5078081;28;20426;-60
2021/12/23 01:28:13;;;;;;;30.35;13.60;;;;;;;;;;5084553;28;20109;-60
2021/12/23 01:30:39;;;;;;;25.33;14.95;;;;;;;;;;5086524;28;20037;-60
2021/12/23 01:33:07;;;;;;;26.35;13.15;;;;;;;;;;5076658;28;20041;-60
2021/12/23 01:35:33;;;;;;;25.20;14.38;;;;;;;;;;5080703;28;20044;-60
2021/12/23 01:38:00;;;;;;;20.52;12.70;;;;;;;;;;5073901;28;20433;-60
2021/12/23 01:40:27;;;;;;;27.23;12.70;;;;;;;;;;5074984;28;20064;-60
2021/12/23 01:42:53;;;;;;;22.20;12.73;;;;;;;;;;5077916;28;20043;-60
2021/12/23 01:45:23;;;;;;;22.70;13.38;;;;;;;;;;5077552;28;20047;-60
2021/12/23 01:47:49;;;;;;;23.88;13.13;;;;;;;;;;5082196;28;20048;-60
2021/12/23 01:50:16;;;;;;;24.33;13.45;;;;;;;;;;5078961;28;20044;-60
2021/12/23 01:52:43;;;;;;;25.77;14.05;;;;;;;;;;5078337;28;20041;-60
2021/12/23 01:55:10;;;;;;;23.48;13.27;;;;;;;;;;5077975;28;20048;-60
2021/12/23 01:57:36;;;;;;;30.60;13.95;;;;;;;;;;5080556;28;20036;-61
2021/12/23 02:00:06;;;;;;;28.63;14.55;;;;;;;;;;5082935;28;20115;-60
2021/12/23 02:02:32;;;;;;;21.45;13.32;;;;;;;;;;5077019;28;20051;-60
2021/12/23 02:04:58;;;;;;;26.52;13.40;;;;;;;;;;5080763;28;20089;-60
2021/12/23 02:07:24;;;;;;;25.27;12.95;;;;;;;;;;5079983;28;20041;-60
2021/12/23 02:09:51;;;;;;;23.25;13.30;;;;;;;;;;5081087;28;20036;-60
2021/12/23 02:12:17;;;;;;;28.23;15.20;;;;;;;;;;5078481;28;20449;-60
2021/12/23 02:14:43;;;;;;;23.40;13.95;;;;;;;;;;5079697;28;20029;-60
2021/12/23 02:17:10;;;;;;;28.45;14.07;;;;;;;;;;5078331;28;20098;-60
2021/12/23 02:19:36;;;;;;;24.58;12.88;;;;;;;;;;5079701;28;20060;-61
2021/12/23 02:22:02;;;;;;;26.00;13.85;;;;;;;;;;5083397;28;20056;-60
2021/12/23 02:24:28;;;;;;;23.35;13.43;;;;;;;;;;5083086;28;20064;-60
2021/12/23 02:26:55;;;;;;;25.38;14.40;;;;;;;;;;5080961;28;20103;-60
2021/12/23 02:29:21;;;;;;;23.67;13.25;;;;;;;;;;5079048;28;20044;-60
2021/12/23 02:31:49;;;;;;;24.60;12.18;;;;;;;;;;5078117;28;20047;-60
2021/12/23 02:34:17;;;;;;;21.98;12.82;;;;;;;;;;5086561;28;20040;-61
2021/12/23 02:36:48;;;;;;;24.80;13.57;;;;;;;;;;5082330;28;20041;-60
2021/12/23 02:39:14;;;;;;;22.58;12.32;;;;;;;;;;5082951;28;20455;-61
2021/12/23 02:41:41;;;;;;;26.50;14.35;;;;;;;;;;5083209;28;20082;-60
2021/12/23 02:44:07;;;;;;;23.23;13.82;;;;;;;;;;5081333;28;20044;-60
2021/12/23 02:46:35;;;;;;;24.95;15.15;;;;;;;;;;5082875;28;20032;-62
2021/12/23 02:49:01;;;;;;;24.77;13.63;;;;;;;;;;5100889;28;20102;-60
2021/12/23 02:51:27;;;;;;;23.52;13.68;;;;;;;;;;5088128;28;20131;-60
2021/12/23 02:53:53;;;;;;;25.55;14.55;;;;;;;;;;5083954;28;20048;-60
2021/12/23 02:56:20;;;;;;;21.38;12.82;;;;;;;;;;5081990;28;20108;-60
2021/12/23 02:58:46;;;;;;;24.40;14.55;;;;;;;;;;5077186;28;20051;-60
2021/12/23 03:01:13;;;;;;;24.25;12.90;;;;;;;;;;5081682;28;20045;-60
2021/12/23 03:03:40;;;;;;;25.80;12.95;;;;;;;;;;5080415;28;20043;-60
2021/12/23 03:06:07;;;;;;;25.50;15.20;;;;;;;;;;5078167;28;20051;-60
2021/12/23 03:08:36;;;;;;;23.85;13.40;;;;;;;;;;5078214;28;20044;-60
2021/12/23 03:11:03;;;;;;;27.63;14.38;;;;;;;;;;5083324;28;20036;-60
2021/12/23 03:13:29;;;;;;;24.15;14.75;;;;;;;;;;5084746;28;20040;-61
2021/12/23 03:15:56;;;;;;;29.08;14.15;;;;;;;;;;5079702;28;20036;-60
2021/12/23 03:18:22;;;;;;;22.40;14.10;;;;;;;;;;5078174;28;20084;-60
2021/12/23 03:20:48;;;;;;;21.60;13.35;;;;;;;;;;5085568;28;20054;-60
2021/12/23 03:23:14;;;;;;;25.20;13.52;;;;;;;;;;5084219;28;20044;-61
2021/12/23 03:25:41;;;;;;;26.02;14.65;;;;;;;;;;5089989;28;20054;-60
2021/12/23 03:28:07;;;;;;;27.30;14.82;;;;;;;;;;5082353;28;20048;-60
2021/12/23 03:30:33;;;;;;;22.63;14.25;;;;;;;;;;5086271;28;20113;-61
2021/12/23 03:32:59;;;;;;;25.52;13.95;;;;;;;;;;5083465;28;20064;-60
2021/12/23 03:35:26;;;;;;;24.48;15.00;;;;;;;;;;5077823;28;20040;-60
2021/12/23 03:37:53;;;;;;;28.88;14.32;;;;;;;;;;5079070;28;20486;-60
2021/12/23 03:40:20;;;;;;;24.02;13.60;;;;;;;;;;5089354;28;20036;-60
2021/12/23 03:42:46;;;;;;;26.73;15.35;;;;;;;;;;5087911;28;20048;-60
2021/12/23 03:45:12;;;;;;;25.10;14.57;;;;;;;;;;5089020;28;20355;-60
2021/12/23 03:47:39;;;;;;;26.40;14.85;;;;;;;;;;5087953;28;20147;-60
2021/12/23 03:50:06;;;;;;;24.38;14.32;;;;;;;;;;5080642;28;20048;-60
2021/12/23 03:52:33;;;;;;;27.88;14.88;;;;;;;;;;5082038;28;20044;-60
2021/12/23 03:54:59;;;;;;;26.50;14.77;;;;;;;;;;5087786;28;20048;-61
2021/12/23 03:57:25;;;;;;;26.98;14.32;;;;;;;;;;5089759;28;20082;-61
2021/12/23 03:59:51;;;;;;;26.38;15.57;;;;;;;;;;5084174;28;20035;-60
2021/12/23 04:02:18;;;;;;;27.02;15.95;;;;;;;;;;5087452;28;20055;-60
2021/12/23 04:04:44;;;;;;;26.98;16.25;;;;;;;;;;5085300;28;20115;-60
2021/12/23 04:07:10;;;;;;;30.20;15.32;;;;;;;;;;5088734;28;20044;-60
2021/12/23 04:09:36;;;;;;;30.92;15.20;;;;;;;;;;5081430;28;20036;-60
2021/12/23 04:12:03;;;;;;;25.83;15.82;;;;;;;;;;5086181;28;20056;-60
2021/12/23 04:14:29;;;;;;;30.13;16.48;;;;;;;;;;5083244;28;20123;-60
2021/12/23 04:16:55;;;;;;;24.98;15.20;;;;;;;;;;5086763;28;20100;-60
2021/12/23 04:19:27;;;;;;;27.10;15.73;;;;;;;;;;5088492;28;20043;-61
2021/12/23 04:21:53;;;;;;;24.33;14.55;;;;;;;;;;5082163;28;20117;-60
2021/12/23 04:24:20;;;;;;;26.20;14.63;;;;;;;;;;5084312;28;20119;-60
2021/12/23 04:26:46;;;;;;;27.27;15.90;;;;;;;;;;5082326;28;20041;-60
2021/12/23 04:29:12;;;;;;;30.05;16.58;;;;;;;;;;5089494;28;20047;-61
2021/12/23 04:31:38;;;;;;;29.95;15.65;;;;;;;;;;5086716;28;20040;-60
2021/12/23 04:34:04;;;;;;;29.45;15.60;;;;;;;;;;5078646;28;20052;-60
2021/12/23 04:36:31;;;;;;;28.30;15.57;;;;;;;;;;5080176;28;20075;-60
2021/12/23 04:38:59;;;;;;;27.40;16.52;;;;;;;;;;5078682;28;20044;-60
2021/12/23 04:41:25;;;;;;;25.85;15.43;;;;;;;;;;5082783;28;20070;-60
2021/12/23 04:43:52;;;;;;;25.58;15.15;;;;;;;;;;5075186;28;20032;-61
2021/12/23 04:46:18;;;;;;;25.95;15.73;;;;;;;;;;5078350;28;20556;-60
2021/12/23 04:48:45;;;;;;;27.50;15.63;;;;;;;;;;5080664;28;20066;-60
2021/12/23 04:51:13;;;;;;;24.77;15.15;;;;;;;;;;5075416;28;20052;-61
2021/12/23 04:53:39;;;;;;;30.42;15.82;;;;;;;;;;5081100;28;20036;-61
2021/12/23 04:56:05;;;;;;;25.38;15.73;;;;;;;;;;5075767;28;20040;-60
2021/12/23 04:58:32;;;;;;;24.60;14.93;;;;;;;;;;5077953;28;20072;-60
2021/12/23 05:00:58;;;;;;;29.70;17.15;;;;;;;;;;5078816;28;20036;-60
2021/12/23 05:03:25;;;;;;;29.00;15.77;;;;;;;;;;5075903;28;20041;-60
2021/12/23 05:05:52;;;;;;;25.27;14.77;;;;;;;;;;5076632;28;20052;-61
2021/12/23 05:08:18;;;;;;;26.13;15.70;;;;;;;;;;5079464;28;20078;-60
2021/12/23 05:10:44;;;;;;;29.60;16.00;;;;;;;;;;5081963;28;20051;-60
2021/12/23 05:13:11;;;;;;;24.95;15.85;;;;;;;;;;5080346;28;20185;-61
2021/12/23 05:15:37;;;;;;;31.80;16.83;;;;;;;;;;5080143;28;20404;-60
2021/12/23 05:18:04;;;;;;;31.38;17.17;;;;;;;;;;5077848;28;20036;-60
2021/12/23 05:20:30;;;;;;;26.65;17.23;;;;;;;;;;5078132;28;20041;-60
2021/12/23 05:22:56;;;;;;;24.90;15.18;;;;;;;;;;5080299;28;20040;-61
2021/12/23 05:25:23;;;;;;;33.72;17.70;;;;;;;;;;5075624;28;20052;-60
2021/12/23 05:27:52;;;;;;;30.75;17.85;;;;;;;;;;5084106;28;20039;-60
2021/12/23 05:30:19;;;;;;;28.30;15.82;;;;;;;;;;5085441;28;20051;-60
2021/12/23 05:32:45;;;;;;;28.80;17.80;;;;;;;;;;5081302;28;20036;-60
2021/12/23 05:35:12;;;;;;;32.28;16.85;;;;;;;;;;5080397;28;20097;-60
2021/12/23 05:37:39;;;;;;;29.17;16.77;;;;;;;;;;5080485;28;20500;-61
2021/12/23 05:40:05;;;;;;;33.28;17.98;;;;;;;;;;5076877;28;20131;-60
2021/12/23 05:42:32;;;;;;;26.90;16.05;;;;;;;;;;5079584;28;20037;-60
2021/12/23 05:44:58;;;;;;;27.48;16.98;;;;;;;;;;5079796;28;20139;-60
2021/12/23 05:47:24;;;;;;;30.17;17.40;;;;;;;;;;5079405;28;20162;-61
2021/12/23 05:49:50;;;;;;;30.20;17.52;;;;;;;;;;5077966;28;20044;-60
2021/12/23 05:52:16;;;;;;;29.42;16.75;;;;;;;;;;5084323;28;20132;-60
2021/12/23 05:54:42;;;;;;;30.58;16.58;;;;;;;;;;5081879;28;20806;-60
2021/12/23 05:57:09;;;;;;;31.65;18.55;;;;;;;;;;5083339;28;20059;-60
2021/12/23 05:59:35;;;;;;;33.38;18.48;;;;;;;;;;5080414;28;20032;-60
2021/12/23 06:02:04;;;;;;;30.88;18.08;;;;;;;;;;5080995;28;20119;-60
2021/12/23 06:04:30;;;;;;;33.65;18.70;;;;;;;;;;5081639;28;20128;-60
2021/12/23 06:06:57;;;;;;;28.17;16.75;;;;;;;;;;5085941;28;20048;-60
2021/12/23 06:09:23;;;;;;;32.55;18.58;;;;;;;;;;5084417;28;20044;-60
2021/12/23 06:11:49;;;;;;;33.65;19.17;;;;;;;;;;5087818;28;20054;-60
2021/12/23 06:14:16;;;;;;;29.77;17.98;;;;;;;;;;5082941;28;20467;-60
2021/12/23 06:16:43;;;;;;;32.42;17.17;;;;;;;;;;5083511;28;20075;-60
2021/12/23 06:19:09;;;;;;;30.40;18.13;;;;;;;;;;5082360;28;20415;-60
2021/12/23 06:21:35;;;;;;;31.67;18.80;;;;;;;;;;5081720;28;20042;-60
2021/12/23 06:24:03;;;;;;;31.92;18.25;;;;;;;;;;5080276;28;20047;-61
2021/12/23 06:26:29;;;;;;;32.58;17.95;;;;;;;;;;5087538;28;20051;-61
2021/12/23 06:28:57;;;;;;;33.22;19.27;;;;;;;;;;5085997;28;20188;-61
2021/12/23 06:31:23;;;;;;;30.85;18.38;;;;;;;;;;5092808;28;20660;-61
2021/12/23 06:33:49;;;;;;;28.77;17.70;;;;;;;;;;5089906;28;20044;-61
2021/12/23 06:36:15;;;;;;;29.63;18.00;;;;;;;;;;5086045;28;20052;-61
2021/12/23 06:38:42;;;;;;;34.83;18.83;;;;;;;;;;5082121;28;20048;-61
2021/12/23 06:41:09;;;;;;;33.15;19.65;;;;;;;;;;5080473;28;20037;-61
2021/12/23 06:43:35;;;;;;;34.83;19.30;;;;;;;;;;5080374;28;21964;-61
2021/12/23 06:46:02;;;;;;;30.60;19.55;;;;;;;;;;5080305;28;20127;-61
2021/12/23 06:48:29;;;;;;;32.08;19.08;;;;;;;;;;5077985;28;20051;-61
2021/12/23 06:50:57;;;;;;;33.00;19.20;;;;;;;;;;5083268;28;20041;-61
2021/12/23 06:53:24;;;;;;;36.40;19.60;;;;;;;;;;5084634;28;20036;-61
2021/12/23 06:55:51;;;;;;;36.92;19.15;;;;;;;;;;5081743;28;20040;-61
2021/12/23 06:58:18;;;;;;;37.58;20.65;;;;;;;;;;5081715;28;20048;-61
2021/12/23 07:00:45;;;;;;;34.63;19.77;;;;;;;;;;5076898;28;20138;-61
2021/12/23 07:03:11;;;;;;;32.78;19.60;;;;;;;;;;5077224;28;20115;-61
2021/12/23 07:05:37;;;;;;;32.72;19.42;;;;;;;;;;5080248;28;20048;-62
2021/12/23 07:08:09;;;;;;;33.38;20.08;;;;;;;;;;5075494;28;20110;-61
2021/12/23 07:10:35;;;;;;;36.65;20.77;;;;;;;;;;5080093;28;20060;-60
2021/12/23 07:13:01;;;;;;;44.25;21.13;;;;;;;;;;5076785;28;20036;-61
2021/12/23 07:15:28;;;;;;;37.40;20.23;;;;;;;;;;5077756;28;20484;-60
2021/12/23 07:17:55;;;;;;;35.20;20.48;;;;;;;;;;5080804;28;20119;-61
2021/12/23 07:20:22;;;;;;;35.15;20.42;;;;;;;;;;5078852;28;20040;-61
2021/12/23 07:22:48;;;;;;;36.53;21.95;;;;;;;;;;5076900;28;20096;-61
2021/12/23 07:25:15;;;;;;;32.35;20.30;;;;;;;;;;5079702;28;20052;-61
2021/12/23 07:27:42;;;;;;;31.55;20.50;;;;;;;;;;5079059;28;20036;-61
2021/12/23 07:30:09;;;;;;;35.88;20.75;;;;;;;;;;5076138;28;20044;-61
2021/12/23 07:32:35;;;;;;;35.05;20.52;;;;;;;;;;5075392;28;20051;-61
2021/12/23 07:35:01;;;;;;;37.10;20.25;;;;;;;;;;5075456;28;20074;-61
2021/12/23 07:37:27;;;;;;;35.83;19.83;;;;;;;;;;5079593;28;20060;-61
2021/12/23 07:39:55;;;;;;;34.00;20.75;;;;;;;;;;5075933;28;20050;-61
2021/12/23 07:42:22;;;;;;;33.83;19.98;;;;;;;;;;5077059;28;20074;-61
2021/12/23 07:44:48;;;;;;;36.05;20.90;;;;;;;;;;5073920;28;20106;-61
2021/12/23 07:47:15;;;;;;;38.38;20.95;;;;;;;;;;5085180;28;20051;-61
2021/12/23 07:49:42;;;;;;;37.30;22.20;;;;;;;;;;5072981;28;20105;-60
2021/12/23 07:52:09;;;;;;;37.58;21.25;;;;;;;;;;5077035;28;20048;-61
2021/12/23 07:54:35;;;;;;;40.28;22.17;;;;;;;;;;5077107;28;20529;-61
2021/12/23 07:57:01;;;;;;;40.35;22.63;;;;;;;;;;5075053;28;20105;-61
2021/12/23 07:59:28;;;;;;;39.05;21.00;;;;;;;;;;5076719;28;20046;-62
2021/12/23 08:01:55;;;;;;;37.53;21.45;;;;;;;;;;5082544;28;20398;-61
2021/12/23 08:04:21;;;;;;;35.75;22.25;;;;;;;;;;5078111;28;20072;-61
2021/12/23 08:06:53;;;;;;;39.60;22.30;;;;;;;;;;5076749;28;20135;-61
2021/12/23 08:09:20;;;;;;;43.55;22.55;;;;;;;;;;5073491;28;20120;-61
2021/12/23 08:11:46;;;;;;;37.80;23.55;;;;;;;;;;5074242;28;20052;-61
2021/12/23 08:14:12;;;;;;;41.00;23.65;;;;;;;;;;5074369;28;20047;-61
2021/12/23 08:16:38;;;;;;;41.63;23.15;;;;;;;;;;5075130;28;20080;-61
2021/12/23 08:19:05;;;;;;;43.00;26.35;;;;;;;;;;5074215;28;20480;-61
2021/12/23 08:21:31;;;;;;;48.42;25.10;;;;;;;;;;5074446;28;20040;-61
2021/12/23 08:23:57;;;;;;;42.05;24.55;;;;;;;;;;5078695;28;20068;-62
2021/12/23 08:26:28;;;;;;;45.95;27.15;;;;;;;;;;5076047;28;20134;-62
2021/12/23 08:28:55;;;;;;;47.65;24.83;;;;;;;;;;5078031;28;20400;-61
2021/12/23 08:31:21;;;;;;;46.33;27.85;;;;;;;;;;5071689;28;20055;-61
2021/12/23 08:33:48;;;;;;;45.17;25.50;;;;;;;;;;5077908;28;20043;-60
2021/12/23 08:36:15;;;;;;;47.67;26.20;;;;;;;;;;5077012;28;20406;-60
2021/12/23 08:38:41;;;;;;;49.30;27.27;;;;;;;;;;5074629;28;20032;-61
2021/12/23 08:41:07;;;;;;;54.55;29.23;;;;;;;;;;5076032;28;20123;-66
2021/12/23 08:43:34;;;;;;;53.65;28.63;;;;;;;;;;5076860;28;20496;-61
2021/12/23 08:46:00;;;;;;;53.40;29.25;;;;;;;;;;5075644;28;20040;-64
2021/12/23 08:48:26;;;;;;;49.85;27.92;;;;;;;;;;5076672;28;20056;-64
2021/12/23 08:50:52;;;;;;;56.45;29.90;;;;;;;;;;5076725;28;20044;-69
2021/12/23 08:53:19;;;;;;;57.30;30.85;;;;;;;;;;5078795;28;20067;-61
2021/12/23 08:55:45;;;;;;;53.60;29.52;;;;;;;;;;5073572;28;20115;-61
2021/12/23 08:58:11;;;;;;;61.40;29.50;;;;;;;;;;5073560;28;20106;-61
2021/12/23 09:00:39;;;;;;;54.42;29.90;;;;;;;;;;5076733;28;20127;-61
2021/12/23 09:03:06;;;;;;;58.40;29.90;;;;;;;;;;5073960;28;20127;-61
2021/12/23 09:05:32;;;;;;;72.43;36.03;;;;;;;;;;5074159;28;20066;-61
2021/12/23 09:07:59;;;;;;;72.03;35.25;;;;;;;;;;5076562;28;20094;-65
2021/12/23 09:10:25;;;;;;;69.80;35.25;;;;;;;;;;5075055;28;20438;-61
2021/12/23 09:12:52;;;;;;;69.47;33.92;;;;;;;;;;5072645;28;20041;-61
2021/12/23 09:15:19;;;;;;;76.95;35.50;;;;;;;;;;5077043;28;20201;-61
2021/12/23 09:17:46;;;;;;;76.53;35.22;;;;;;;;;;5075242;28;20044;-61
2021/12/23 09:20:13;;;;;;;79.38;35.83;;;;;;;;;;5071913;28;20411;-61
2021/12/23 09:22:39;;;;;;;81.95;40.88;;;;;;;;;;5073878;28;20040;-61
2021/12/23 09:25:11;;;;;;;84.97;39.97;;;;;;;;;;5083074;28;20115;-61
2021/12/23 09:27:51;;;;;;;85.22;39.28;;;;;;;;;;5085446;28;20049;-60
2021/12/23 09:33:02;;;;;;;93.47;39.92;;;;;;;;;;5090770;28;20119;-61
2021/12/23 09:35:30;;;;;;;93.40;41.50;;;;;;;;;;5082864;28;20053;-61
2021/12/23 09:37:57;;;;;;;107.28;43.33;;;;;;;;;;5079054;28;20142;-61
2021/12/23 09:40:23;;;;;;;106.55;46.05;;;;;;;;;;5076958;28;20045;-61
2021/12/23 09:42:50;;;;;;;92.90;38.45;;;;;;;;;;5077561;28;20051;-65
2021/12/23 09:45:18;;;;;;;97.13;39.88;;;;;;;;;;5086876;28;20049;-65
2021/12/23 09:47:46;;;;;;;109.57;45.00;;;;;;;;;;5075776;28;20079;-67
2021/12/23 09:50:13;;;;;;;112.20;43.70;;;;;;;;;;5077343;28;20434;-60
2021/12/23 09:52:42;;;;;;;119.28;47.90;;;;;;;;;;5084894;28;20052;-61
2021/12/23 09:55:09;;;;;;;113.93;44.58;;;;;;;;;;5083734;28;20144;-61
2021/12/23 09:57:35;;;;;;;134.57;47.78;;;;;;;;;;5092358;28;20036;-61
2021/12/23 10:00:01;;;;;;;117.32;48.03;;;;;;;;;;5090940;28;20139;-61
2021/12/23 10:02:28;;;;;;;127.40;49.10;;;;;;;;;;5086067;28;20044;-61
2021/12/23 10:04:54;;;;;;;131.35;49.72;;;;;;;;;;5090543;28;20107;-61
2021/12/23 10:07:20;;;;;;;127.30;50.40;;;;;;;;;;5081348;28;20041;-61
2021/12/23 10:09:59;;;;;;;134.00;51.83;;;;;;;;;;5077718;28;20102;-61
2021/12/23 10:13:12;;;;;;;133.90;50.75;;;;;;;;;;5077380;28;20211;-61
2021/12/23 10:30:13;;;;;;;158.70;51.97;;;;;;;;;;5088632;28;20097;-61
2021/12/23 10:32:19;;;;;;;166.05;54.97;;;;;;;;;;5077624;28;20411;-61
2021/12/23 10:37:18;;;;;;;168.48;49.47;;;;;;;;;;5084906;28;20044;-60
2021/12/23 10:39:47;;;;;;;189.27;57.22;;;;;;;;;;5081880;28;20097;-61
2021/12/23 10:42:15;;;;;;;186.77;59.33;;;;;;;;;;5083430;28;20048;-61
2021/12/23 10:44:47;;;;;;;184.15;57.15;;;;;;;;;;5075207;28;20122;-61
2021/12/23 10:47:29;;;;;;;176.77;56.55;;;;;;;;;;5081466;28;20131;-60
2021/12/23 10:49:59;;;;;;;174.00;54.42;;;;;;;;;;5080587;28;20048;-61
2021/12/23 10:52:30;;;;;;;192.30;56.63;;;;;;;;;;5079068;28;20126;-61
2021/12/23 11:00:21;;;;;;;176.07;54.75;;;;;;;;;;5078751;28;20064;-61
2021/12/23 11:03:01;;;;;;;150.40;49.33;;;;;;;;;;5076644;28;20044;-61
2021/12/23 11:05:32;;;;;;;172.05;52.85;;;;;;;;;;5081902;28;20052;-61
2021/12/23 11:08:15;;;;;;;179.88;58.00;;;;;;;;;;5076028;28;20033;-60
2021/12/23 11:11:05;;;;;;;150.40;50.67;;;;;;;;;;5081460;28;20048;-60
2021/12/23 11:30:32;;;;;;;;;;;;;;;;;;5089484;28;20041;-61
2021/12/23 11:38:20;;;;;;;172.05;52.42;;;;;;;;;;5089032;28;20044;-62
2021/12/23 11:45:46;;;;;;;177.35;54.33;;;;;;;;;;5089824;28;20079;-62
2021/12/23 11:48:14;;;;;;;184.77;56.53;;;;;;;;;;5082156;28;20052;-61
2021/12/23 11:50:53;;;;;;;195.38;57.55;;;;;;;;;;5087948;28;20048;-61
2021/12/23 11:53:20;;;;;;;188.75;54.38;;;;;;;;;;5084330;28;20055;-61
2021/12/23 11:55:46;;;;;;;187.10;54.60;;;;;;;;;;5082120;28;20063;-61
2021/12/23 11:58:14;;;;;;;166.63;52.60;;;;;;;;;;5083089;28;20462;-61
2021/12/23 12:00:42;;;;;;;174.68;56.13;;;;;;;;;;5081534;28;20044;-61
2021/12/23 12:03:09;;;;;;;169.93;55.15;;;;;;;;;;5094327;28;20387;-61
2021/12/23 12:05:37;;;;;;;186.00;59.53;;;;;;;;;;5086688;28;20040;-62
2021/12/23 12:08:06;;;;;;;180.55;55.20;;;;;;;;;;5079831;28;20124;-62
2021/12/23 12:10:33;;;;;;;197.85;57.00;;;;;;;;;;5101982;28;20175;-61
2021/12/23 12:13:04;;;;;;;195.38;58.13;;;;;;;;;;5084106;28;20540;-61
2021/12/23 12:15:39;;;;;;;182.73;56.85;;;;;;;;;;5086719;28;20076;-61
2021/12/23 12:18:08;;;;;;;177.93;55.45;;;;;;;;;;5085178;28;20048;-60
2021/12/23 12:20:42;;;;;;;199.43;57.15;;;;;;;;;;5084024;28;20047;-60
2021/12/23 12:23:12;;;;;;;182.77;56.08;;;;;;;;;;5081612;28;20052;-60
2021/12/23 12:25:43;;;;;;;186.00;55.70;;;;;;;;;;5087277;28;20055;-66
2021/12/23 12:28:09;;;;;;;191.65;55.60;;;;;;;;;;5074185;28;20084;-62
2021/12/23 12:30:37;;;;;;;197.35;54.00;;;;;;;;;;5079946;28;20470;-59
2021/12/23 12:33:04;;;;;;;192.30;56.15;;;;;;;;;;5083960;28;20479;-60
2021/12/23 12:35:30;;;;;;;192.73;57.00;;;;;;;;;;5086746;28;20056;-59
2021/12/23 12:38:11;;;;;;;200.93;58.55;;;;;;;;;;5083811;28;20460;-66
2021/12/23 12:40:57;;;;;;;197.80;55.33;;;;;;;;;;5082122;28;20041;-59
2021/12/23 12:43:43;;;;;;;192.32;58.05;;;;;;;;;;5082034;28;20054;-59
2021/12/23 12:46:11;;;;;;;187.23;55.13;;;;;;;;;;5084455;28;20445;-59
2021/12/23 12:49:10;;;;;;;207.43;57.42;;;;;;;;;;5082250;28;20148;-60
2021/12/23 12:51:38;;;;;;;202.48;55.05;;;;;;;;;;5088748;28;20086;-59
2021/12/23 12:54:07;;;;;;;199.93;58.30;;;;;;;;;;5087705;28;20040;-59
2021/12/23 12:56:34;;;;;;;217.32;58.05;;;;;;;;;;5077947;28;20051;-60
2021/12/23 12:59:01;;;;;;;210.43;57.10;;;;;;;;;;5082656;28;20044;-59
2021/12/23 13:01:31;;;;;;;212.55;60.30;;;;;;;;;;5075956;28;20396;-60
2021/12/23 13:03:59;;;;;;;214.80;59.25;;;;;;;;;;5074716;28;20051;-59
2021/12/23 13:06:28;;;;;;;212.40;62.70;;;;;;;;;;5074868;28;20058;-59
2021/12/23 13:09:02;;;;;;;198.75;59.47;;;;;;;;;;5078855;28;20079;-59
2021/12/23 13:11:29;;;;;;;207.98;62.08;;;;;;;;;;5075035;28;20047;-59
2021/12/23 13:14:02;;;;;;;215.98;60.03;;;;;;;;;;5084697;28;20396;-60
2021/12/23 13:16:28;;;;;;;211.07;60.55;;;;;;;;;;5085692;28;20066;-59
2021/12/23 13:19:14;;;;;;;216.02;61.42;;;;;;;;;;5083405;28;20040;-59
2021/12/23 13:21:42;;;;;;;201.05;57.55;;;;;;;;;;5081702;28;20153;-59
2021/12/23 13:24:10;;;;;;;211.68;58.67;;;;;;;;;;5081474;28;20158;-59
2021/12/23 13:26:37;;;;;;;195.75;58.75;;;;;;;;;;5084131;28;20044;-59
2021/12/23 13:29:05;;;;;;;211.50;60.15;;;;;;;;;;5091188;28;20072;-60
2021/12/23 13:31:33;;;;;;;201.18;57.60;;;;;;;;;;5071713;28;20044;-59
2021/12/23 13:34:00;;;;;;;196.50;58.80;;;;;;;;;;5078359;28;20391;-59
2021/12/23 13:36:29;;;;;;;197.18;58.80;;;;;;;;;;5085166;28;20047;-59
2021/12/23 13:38:58;;;;;;;198.40;56.67;;;;;;;;;;5084035;28;20480;-61
2021/12/23 13:41:27;;;;;;;204.52;54.63;;;;;;;;;;5080783;28;20136;-60
2021/12/23 13:43:55;;;;;;;206.70;60.22;;;;;;;;;;5092552;28;20139;-59
2021/12/23 13:46:23;;;;;;;207.00;59.47;;;;;;;;;;5085381;28;20048;-60
2021/12/23 13:48:53;;;;;;;192.48;56.60;;;;;;;;;;5089033;28;20131;-59
2021/12/23 13:51:22;;;;;;;198.35;56.00;;;;;;;;;;5088198;28;20123;-60
2021/12/23 13:53:48;;;;;;;192.50;56.83;;;;;;;;;;5084769;28;20518;-60
2021/12/23 13:56:15;;;;;;;220.73;59.70;;;;;;;;;;5078253;28;20041;-60
2021/12/23 13:58:41;;;;;;;199.10;56.95;;;;;;;;;;5081583;28;20479;-59
2021/12/23 14:01:08;;;;;;;206.32;58.17;;;;;;;;;;5075572;28;20052;-60
2021/12/23 14:03:34;;;;;;;196.57;56.03;;;;;;;;;;5079058;28;20131;-60
2021/12/23 14:06:01;;;;;;;216.07;59.28;;;;;;;;;;5079632;28;20054;-60
2021/12/23 14:08:30;;;;;;;202.32;57.67;;;;;;;;;;5078070;28;20508;-59
2021/12/23 14:10:58;;;;;;;202.20;58.60;;;;;;;;;;5086326;28;20064;-59
2021/12/23 14:13:25;;;;;;;216.55;58.97;;;;;;;;;;5092617;28;20040;-60
2021/12/23 14:15:52;;;;;;;209.98;60.42;;;;;;;;;;5088857;28;20410;-60
2021/12/23 14:23:24;;;;;;;226.13;59.05;;;;;;;;;;5082014;28;20548;-60
2021/12/23 14:25:59;;;;;;;212.10;59.58;;;;;;;;;;5084338;28;20082;-59
2021/12/23 14:28:28;;;;;;;204.93;59.90;;;;;;;;;;5082945;28;20033;-59
2021/12/23 14:31:00;;;;;;;208.82;62.13;;;;;;;;;;5093684;28;20038;-60
2021/12/23 14:33:28;;;;;;;219.98;64.72;;;;;;;;;;5093845;28;20040;-59
2021/12/23 14:35:56;;;;;;;230.57;65.50;;;;;;;;;;5089742;28;20135;-60
2021/12/23 14:38:24;;;;;;;204.90;57.17;;;;;;;;;;5083712;28;20401;-60
2021/12/23 14:41:01;;;;;;;221.63;62.75;;;;;;;;;;5078459;28;20048;-60
2021/12/23 14:43:28;;;;;;;227.82;61.97;;;;;;;;;;5080661;28;20048;-60
2021/12/23 14:45:57;;;;;;;230.65;65.57;;;;;;;;;;5089096;28;20040;-59
2021/12/23 14:48:25;;;;;;;227.73;63.10;;;;;;;;;;5085496;28;20071;-59
2021/12/23 14:51:01;;;;;;;232.55;62.78;;;;;;;;;;5083045;28;20040;-60
2021/12/23 14:53:28;;;;;;;213.88;64.13;;;;;;;;;;5085247;28;20514;-59
2021/12/23 14:55:55;;;;;;;221.15;64.32;;;;;;;;;;5089219;28;20040;-59
2021/12/23 14:58:22;;;;;;;243.63;63.53;;;;;;;;;;5096195;28;20048;-60
2021/12/23 15:00:48;;;;;;;255.90;67.85;;;;;;;;;;5088982;28;20124;-60
2021/12/23 15:03:16;;;;;;;271.95;71.35;;;;;;;;;;5091365;28;20043;-59
2021/12/23 15:05:44;;;;;;;264.95;66.88;;;;;;;;;;5084677;28;20118;-59
2021/12/23 15:08:17;;;;;;;258.60;69.18;;;;;;;;;;5092274;28;20559;-59
2021/12/23 15:10:51;;;;;;;258.33;68.43;;;;;;;;;;5089003;28;20036;-60
2021/12/23 15:13:18;;;;;;;;;;;;;;;;;;5077253;28;20128;-61
2021/12/23 15:15:44;;;;;;;279.58;67.07;;;;;;;;;;5080292;28;19989;-66
2021/12/23 15:18:27;;;;;;;311.67;75.00;;;;;;;;;;5074689;28;20041;-61
2021/12/23 15:20:54;;;;;;;309.13;73.50;;;;;;;;;;5078609;28;20448;-61
2021/12/23 15:23:41;;;;;;;329.65;75.78;;;;;;;;;;5077209;28;20084;-61
2021/12/23 15:26:21;;;;;;;325.27;74.90;;;;;;;;;;5078673;28;20041;-61